createdAt,value
2022-12-22T00:00:16.578Z,100220.59
2022-12-22T00:03:01.541Z,100235.03
2022-12-22T00:05:46.757Z,100230.81
2022-12-22T00:08:32.142Z,100236.97
2022-12-22T00:11:19.271Z,100247.13
2022-12-22T00:14:05.385Z,100256.50
2022-12-22T00:16:55.950Z,100260.81
2022-12-22T00:19:41.558Z,100267.50
2022-12-22T00:22:38.614Z,100264.97
2022-12-22T00:25:24.700Z,100263.25
2022-12-22T00:28:10.045Z,100273.66
2022-12-22T00:30:55.991Z,100273.63
2022-12-22T00:33:41.595Z,100283.94
2022-12-22T00:36:30.024Z,100280.00
2022-12-22T00:39:15.488Z,100290.16
2022-12-22T00:42:00.881Z,100291.66
2022-12-22T00:44:46.161Z,100289.91
2022-12-22T00:47:37.494Z,100295.81
2022-12-22T00:50:23.384Z,100292.38
2022-12-22T00:53:08.586Z,100308.47
2022-12-22T00:55:53.480Z,100304.13
2022-12-22T00:58:39.360Z,100303.06
2022-12-22T01:01:24.627Z,100300.78
2022-12-22T01:04:09.717Z,100304.31
2022-12-22T01:06:55.220Z,100308.19
2022-12-22T01:09:41.546Z,100310.47
2022-12-22T01:12:36.285Z,100308.66
2022-12-22T01:15:21.571Z,100315.19
2022-12-22T01:18:06.382Z,100311.72
2022-12-22T01:20:51.318Z,100314.38
2022-12-22T01:23:36.563Z,100311.72
2022-12-22T01:26:21.392Z,100314.84
2022-12-22T01:29:06.306Z,100302.28
2022-12-22T01:31:51.556Z,100304.00
2022-12-22T01:34:37.125Z,100308.38
2022-12-22T01:37:22.452Z,100293.72
2022-12-22T01:40:07.294Z,100298.81
2022-12-22T01:42:52.675Z,100292.69
2022-12-22T01:45:42.611Z,100290.16
2022-12-22T01:48:36.031Z,100283.31
2022-12-22T01:51:27.995Z,100298.75
2022-12-22T01:54:14.700Z,100301.31
2022-12-22T01:57:00.106Z,100298.78
2022-12-22T01:59:45.950Z,100290.97
2022-12-22T02:02:31.285Z,100295.91
2022-12-22T02:05:20.007Z,100296.66
2022-12-22T02:08:23.301Z,100294.91
2022-12-22T02:11:14.287Z,100299.31
2022-12-22T02:14:31.024Z,100301.84
2022-12-22T02:17:35.686Z,100310.56
2022-12-22T02:20:48.152Z,100309.91
2022-12-22T02:23:58.473Z,100308.22
2022-12-22T02:26:50.859Z,100307.38
2022-12-22T02:29:41.122Z,100307.41
2022-12-22T02:32:25.979Z,100298.81
2022-12-22T02:35:10.805Z,100303.66
2022-12-22T02:38:14.493Z,100290.81
2022-12-22T02:41:08.389Z,100291.72
2022-12-22T02:44:05.605Z,100278.91
2022-12-22T02:47:03.122Z,100273.03
2022-12-22T02:50:13.833Z,100269.78
2022-12-22T02:53:02.592Z,100267.06
2022-12-22T02:55:49.481Z,100256.25
2022-12-22T02:58:34.769Z,100262.22
2022-12-22T03:01:23.153Z,100262.19
2022-12-22T03:04:08.715Z,100252.59
2022-12-22T03:06:53.860Z,100239.72
2022-12-22T03:09:38.701Z,100237.13
2022-12-22T03:12:23.394Z,100240.50
2022-12-22T03:15:08.229Z,100237.75
2022-12-22T03:17:53.144Z,100218.72
2022-12-22T03:20:37.993Z,100219.38
2022-12-22T03:23:26.094Z,100221.84
2022-12-22T03:25:55.650Z,100216.53
2022-12-22T03:28:25.927Z,100221.56
2022-12-22T03:30:57.459Z,100204.31
2022-12-22T03:33:24.050Z,100205.03
2022-12-22T03:35:51.113Z,100186.94
2022-12-22T03:38:18.104Z,100180.91
2022-12-22T03:40:44.776Z,100186.84
2022-12-22T03:43:31.154Z,100180.72
2022-12-22T03:46:16.694Z,100172.22
2022-12-22T03:49:09.536Z,100166.78
2022-12-22T03:51:47.049Z,100161.56
2022-12-22T03:54:16.989Z,100152.03
2022-12-22T03:56:44.176Z,100152.88
2022-12-22T03:59:11.437Z,100150.25
2022-12-22T04:01:58.296Z,100146.91
2022-12-22T04:04:26.536Z,100147.63
2022-12-22T04:06:53.765Z,100157.75
2022-12-22T04:09:22.210Z,100162.78
2022-12-22T04:12:07.379Z,100153.91
2022-12-22T04:14:34.955Z,100150.50
2022-12-22T04:17:02.950Z,100148.63
2022-12-22T04:19:30.031Z,100153.69
2022-12-22T04:21:57.849Z,100141.69
2022-12-22T04:24:24.400Z,100150.25
2022-12-22T04:26:51.448Z,100153.47
2022-12-22T04:29:18.105Z,100147.66
2022-12-22T04:31:44.683Z,100148.34
2022-12-22T04:34:11.276Z,100141.47
2022-12-22T04:36:37.769Z,100156.09
2022-12-22T04:39:04.514Z,100158.50
2022-12-22T04:41:31.248Z,100153.22
2022-12-22T04:43:57.707Z,100158.50
2022-12-22T04:46:24.450Z,100164.72
2022-12-22T04:48:54.654Z,100178.19
2022-12-22T04:51:26.137Z,100181.47
2022-12-22T04:53:52.674Z,100184.72
2022-12-22T04:56:19.288Z,100184.00
2022-12-22T04:58:45.766Z,100182.97
2022-12-22T05:01:14.980Z,100179.31
2022-12-22T05:03:41.740Z,100169.91
2022-12-22T05:06:08.679Z,100177.59
2022-12-22T05:08:35.590Z,100181.63
2022-12-22T05:11:02.975Z,100178.09
2022-12-22T05:13:31.169Z,100166.03
2022-12-22T05:16:12.565Z,100167.03
2022-12-22T05:18:40.688Z,100173.78
2022-12-22T05:21:14.687Z,100172.78
2022-12-22T05:23:41.820Z,100175.22
2022-12-22T05:26:09.568Z,100170.91
2022-12-22T05:28:36.590Z,100165.94
2022-12-22T05:31:05.880Z,100172.66
2022-12-22T05:33:32.489Z,100175.88
2022-12-22T05:35:59.127Z,100168.19
2022-12-22T05:38:25.701Z,100165.44
2022-12-22T05:40:53.130Z,100161.91
2022-12-22T05:43:22.235Z,100156.78
2022-12-22T05:45:48.884Z,100161.91
2022-12-22T05:48:15.841Z,100163.75
2022-12-22T05:50:43.777Z,100157.66
2022-12-22T05:53:10.492Z,100168.00
2022-12-22T05:55:37.117Z,100166.97
2022-12-22T05:58:03.852Z,100168.75
2022-12-22T06:00:31.952Z,100172.06
2022-12-22T06:02:59.039Z,100172.00
2022-12-22T06:05:25.754Z,100174.44
2022-12-22T06:07:52.239Z,100173.59
2022-12-22T06:10:20.673Z,100172.63
2022-12-22T06:12:47.224Z,100171.88
2022-12-22T06:15:15.272Z,100172.69
2022-12-22T06:17:44.833Z,100168.44
2022-12-22T06:20:12.690Z,100171.91
2022-12-22T06:22:39.260Z,100172.00
2022-12-22T06:25:06.417Z,100186.56
2022-12-22T06:27:32.938Z,100193.31
2022-12-22T06:29:59.431Z,100187.25
2022-12-22T06:32:25.989Z,100182.94
2022-12-22T06:34:52.611Z,100178.69
2022-12-22T06:37:19.160Z,100176.94
2022-12-22T06:39:45.726Z,100182.09
2022-12-22T06:42:31.036Z,100175.06
2022-12-22T06:44:57.580Z,100172.59
2022-12-22T06:47:24.106Z,100168.28
2022-12-22T06:49:51.372Z,100172.53
2022-12-22T06:52:17.892Z,100172.59
2022-12-22T06:54:44.363Z,100175.13
2022-12-22T06:57:10.893Z,100159.75
2022-12-22T06:59:37.511Z,100156.53
2022-12-22T07:02:04.219Z,100151.31
2022-12-22T07:04:31.698Z,100154.84
2022-12-22T07:06:58.273Z,100160.03
2022-12-22T07:09:24.752Z,100158.03
2022-12-22T07:11:51.290Z,100157.06
2022-12-22T07:14:17.827Z,100150.34
2022-12-22T07:16:45.720Z,100145.75
2022-12-22T07:19:12.836Z,100143.13
2022-12-22T07:21:39.658Z,100138.97
2022-12-22T07:24:06.526Z,100133.91
2022-12-22T07:26:33.076Z,100133.94
2022-12-22T07:28:59.603Z,100136.50
2022-12-22T07:31:26.143Z,100136.47
2022-12-22T07:33:52.684Z,100136.50
2022-12-22T07:36:20.765Z,100139.91
2022-12-22T07:38:50.476Z,100130.56
2022-12-22T07:41:37.941Z,100124.50
2022-12-22T07:44:04.697Z,100124.66
2022-12-22T07:46:34.560Z,100121.19
2022-12-22T07:49:20.029Z,100130.56
2022-12-22T07:51:46.888Z,100136.50
2022-12-22T07:54:15.439Z,100141.81
2022-12-22T07:56:43.275Z,100157.47
2022-12-22T07:59:10.887Z,100167.03
2022-12-22T08:01:38.198Z,100178.81
2022-12-22T08:04:04.926Z,100179.75
2022-12-22T08:06:33.520Z,100183.28
2022-12-22T08:09:00.458Z,100176.53
2022-12-22T08:11:27.106Z,100188.56
2022-12-22T08:14:00.819Z,100187.06
2022-12-22T08:16:28.099Z,100183.75
2022-12-22T08:18:54.750Z,100198.59
2022-12-22T08:21:21.429Z,100198.81
2022-12-22T08:23:48.421Z,100206.47
2022-12-22T08:26:25.183Z,100215.22
2022-12-22T08:29:12.448Z,100224.75
2022-12-22T08:31:39.875Z,100222.19
2022-12-22T08:34:09.181Z,100223.09
2022-12-22T08:36:40.257Z,100223.09
2022-12-22T08:39:07.611Z,100223.59
2022-12-22T08:41:50.674Z,100233.44
2022-12-22T08:44:28.512Z,100240.53
2022-12-22T08:46:57.416Z,100237.81
2022-12-22T08:49:24.559Z,100230.63
2022-12-22T08:51:51.859Z,100241.84
2022-12-22T08:54:19.819Z,100248.00
2022-12-22T08:56:46.809Z,100251.53
2022-12-22T08:59:14.068Z,100253.84
2022-12-22T09:01:44.492Z,100266.72
2022-12-22T09:04:15.842Z,100262.25
2022-12-22T09:06:42.424Z,100255.06
2022-12-22T09:09:12.025Z,100254.41
2022-12-22T09:11:39.608Z,100242.59
2022-12-22T09:14:06.648Z,100241.06
2022-12-22T09:16:34.761Z,100239.41
2022-12-22T09:19:02.375Z,100241.97
2022-12-22T09:21:29.371Z,100241.84
2022-12-22T09:23:56.600Z,100240.84
2022-12-22T09:26:25.276Z,100242.75
2022-12-22T09:28:52.724Z,100246.09
2022-12-22T09:31:20.822Z,100252.16
2022-12-22T09:33:47.806Z,100252.53
2022-12-22T09:36:17.644Z,100258.00
2022-12-22T09:38:44.330Z,100270.56
2022-12-22T09:41:16.994Z,100275.34
2022-12-22T09:43:43.793Z,100290.97
2022-12-22T09:46:21.776Z,100294.59
2022-12-22T09:48:48.688Z,100316.69
2022-12-22T09:51:22.726Z,100321.72
2022-12-22T09:53:57.275Z,100326.34
2022-12-22T09:56:25.356Z,100323.91
2022-12-22T09:58:52.226Z,100327.44
2022-12-22T10:01:55.691Z,100328.38
2022-12-22T10:04:39.044Z,100334.59
2022-12-22T10:07:33.403Z,100341.63
2022-12-22T10:10:28.284Z,100337.75
2022-12-22T10:12:57.139Z,100347.31
2022-12-22T10:15:24.302Z,100348.28
2022-12-22T10:17:52.414Z,100350.06
2022-12-22T10:20:26.385Z,100352.69
2022-12-22T10:23:02.308Z,100356.25
2022-12-22T10:25:45.087Z,100346.16
2022-12-22T10:28:22.367Z,100348.91
2022-12-22T10:30:49.889Z,100344.66
2022-12-22T10:33:18.963Z,100350.78
2022-12-22T10:35:48.329Z,100344.09
2022-12-22T10:38:26.977Z,100329.91
2022-12-22T10:41:02.094Z,100335.78
2022-12-22T10:43:38.888Z,100335.13
2022-12-22T10:46:06.223Z,100334.28
2022-12-22T10:48:38.431Z,100328.19
2022-12-22T10:51:08.341Z,100315.84
2022-12-22T10:53:56.497Z,100314.13
2022-12-22T10:56:28.227Z,100317.66
2022-12-22T10:59:04.673Z,100316.09
2022-12-22T11:01:36.570Z,100315.09
2022-12-22T11:04:26.780Z,100309.91
2022-12-22T11:06:55.723Z,100308.28
2022-12-22T11:09:33.743Z,100310.06
2022-12-22T11:12:22.870Z,100298.97
2022-12-22T11:14:58.335Z,100298.13
2022-12-22T11:17:24.836Z,100295.81
2022-12-22T11:20:09.971Z,100298.81
2022-12-22T11:22:46.850Z,100297.25
2022-12-22T11:25:20.139Z,100289.53
2022-12-22T11:28:23.634Z,100282.78
2022-12-22T11:31:19.651Z,100285.38
2022-12-22T11:33:55.109Z,100282.06
2022-12-22T11:36:52.196Z,100274.56
2022-12-22T11:39:28.285Z,100266.91
2022-12-22T11:41:58.557Z,100279.06
2022-12-22T11:44:50.619Z,100273.34
2022-12-22T11:47:21.936Z,100272.72
2022-12-22T11:50:59.613Z,100279.22
2022-12-22T11:53:05.116Z,100278.56
2022-12-22T11:55:37.400Z,100271.78
2022-12-22T11:58:14.206Z,100268.44
2022-12-22T12:01:16.362Z,100257.09
2022-12-22T12:04:09.772Z,100253.53
2022-12-22T12:06:46.344Z,100256.41
2022-12-22T12:09:37.237Z,100259.00
2022-12-22T12:12:14.256Z,100248.91
2022-12-22T12:15:10.186Z,100251.50
2022-12-22T12:17:59.499Z,100241.28
2022-12-22T12:20:38.130Z,100244.06
2022-12-22T12:23:29.899Z,100250.91
2022-12-22T12:26:08.474Z,100249.28
2022-12-22T12:28:56.803Z,100237.28
2022-12-22T12:31:31.617Z,100242.63
2022-12-22T12:34:02.178Z,100238.25
2022-12-22T12:36:31.867Z,100230.56
2022-12-22T12:39:45.603Z,100232.63
2022-12-22T12:42:53.503Z,100238.69
2022-12-22T12:45:41.453Z,100232.63
2022-12-22T12:48:23.633Z,100232.78
2022-12-22T12:50:54.773Z,100238.91
2022-12-22T12:53:26.646Z,100236.59
2022-12-22T12:55:56.440Z,100242.63
2022-12-22T12:58:37.990Z,100237.56
2022-12-22T13:01:13.173Z,100234.16
2022-12-22T13:06:49.843Z,100229.06
2022-12-22T13:09:50.413Z,100222.94
2022-12-22T13:12:54.120Z,100223.66
2022-12-22T13:15:31.260Z,100236.56
2022-12-22T13:17:58.928Z,100237.56
2022-12-22T13:20:35.052Z,100243.63
2022-12-22T13:23:10.542Z,100237.88
2022-12-22T13:25:53.046Z,100227.69
2022-12-22T13:28:23.324Z,100232.88
2022-12-22T13:31:31.054Z,100226.75
2022-12-22T13:34:08.539Z,100225.00
2022-12-22T13:36:36.813Z,100224.22
2022-12-22T13:39:15.200Z,100225.09
2022-12-22T13:41:44.945Z,100232.78
2022-12-22T13:44:16.544Z,100223.38
2022-12-22T13:46:43.514Z,100225.16
2022-12-22T13:49:30.262Z,100232.03
2022-12-22T13:52:05.434Z,100233.78
2022-12-22T13:54:38.281Z,100225.13
2022-12-22T13:57:15.300Z,100224.28
2022-12-22T13:59:45.538Z,100234.72
2022-12-22T14:02:12.667Z,100227.72
2022-12-22T14:04:41.751Z,100213.28
2022-12-22T14:07:15.717Z,100212.34
2022-12-22T14:09:50.386Z,100214.09
2022-12-22T14:12:21.147Z,100212.22
2022-12-22T14:14:51.017Z,100219.94
2022-12-22T14:17:27.922Z,100213.81
2022-12-22T14:19:57.215Z,100205.16
2022-12-22T14:22:46.354Z,100207.00
2022-12-22T14:25:32.126Z,100189.66
2022-12-22T14:27:59.834Z,100182.78
2022-12-22T14:30:36.233Z,100181.97
2022-12-22T14:33:15.420Z,100175.09
2022-12-22T14:35:42.200Z,100175.88
2022-12-22T14:38:25.171Z,100174.91
2022-12-22T14:40:57.133Z,100163.78
2022-12-22T14:43:28.530Z,100168.94
2022-12-22T14:46:05.545Z,100163.63
2022-12-22T14:48:47.038Z,100155.06
2022-12-22T14:51:20.557Z,100154.28
2022-12-22T14:53:52.773Z,100157.66
2022-12-22T14:56:20.099Z,100155.00
2022-12-22T14:58:48.616Z,100155.06
2022-12-22T15:01:15.113Z,100165.31
2022-12-22T15:03:42.304Z,100170.41
2022-12-22T15:06:27.055Z,100178.97
2022-12-22T15:08:54.432Z,100185.81
2022-12-22T15:11:24.414Z,100184.09
2022-12-22T15:13:52.032Z,100176.34
2022-12-22T15:16:21.602Z,100190.94
2022-12-22T15:18:49.751Z,100194.34
2022-12-22T15:21:17.469Z,100195.22
2022-12-22T15:23:44.673Z,100196.88
2022-12-22T15:26:11.969Z,100191.66
2022-12-22T15:28:39.657Z,100195.03
2022-12-22T15:31:14.524Z,100206.22
2022-12-22T15:33:42.000Z,100199.31
2022-12-22T15:36:13.202Z,100190.63
2022-12-22T15:38:41.197Z,100190.63
2022-12-22T15:41:07.972Z,100185.53
2022-12-22T15:43:57.250Z,100177.78
2022-12-22T15:46:24.742Z,100197.72
2022-12-22T15:48:51.620Z,100196.91
2022-12-22T15:51:24.807Z,100196.72
2022-12-22T15:53:52.126Z,100207.91
2022-12-22T15:56:22.755Z,100206.94
2022-12-22T15:58:49.582Z,100203.44
2022-12-22T16:01:16.223Z,100204.34
2022-12-22T16:03:42.816Z,100205.09
2022-12-22T16:06:13.935Z,100216.31
2022-12-22T16:08:42.791Z,100208.63
2022-12-22T16:11:09.469Z,100216.38
2022-12-22T16:13:37.883Z,100226.72
2022-12-22T16:16:05.126Z,100226.72
2022-12-22T16:18:32.679Z,100234.50
2022-12-22T16:21:07.950Z,100254.41
2022-12-22T16:23:36.778Z,100253.06
2022-12-22T16:26:04.885Z,100268.25
2022-12-22T16:28:33.346Z,100267.31
2022-12-22T16:31:01.325Z,100273.38
2022-12-22T16:33:27.899Z,100273.00
2022-12-22T16:35:54.414Z,100251.00
2022-12-22T16:38:21.038Z,100236.38
2022-12-22T16:40:53.065Z,100228.78
2022-12-22T16:46:19.822Z,100213.28
2022-12-22T16:48:50.903Z,100195.19
2022-12-22T16:51:33.608Z,100202.06
2022-12-22T16:54:00.990Z,100198.53
2022-12-22T16:56:30.269Z,100214.78
2022-12-22T16:58:57.282Z,100221.63
2022-12-22T17:01:26.586Z,100221.69
2022-12-22T17:03:53.624Z,100219.00
2022-12-22T17:06:20.319Z,100224.13
2022-12-22T17:08:47.303Z,100215.59
2022-12-22T17:11:22.642Z,100219.75
2022-12-22T17:13:52.438Z,100209.34
2022-12-22T17:16:21.774Z,100208.47
2022-12-22T17:18:49.085Z,100198.06
2022-12-22T17:21:19.005Z,100204.94
2022-12-22T17:23:49.970Z,100199.03
2022-12-22T17:26:20.832Z,100193.81
2022-12-22T17:28:48.699Z,100197.22
2022-12-22T17:31:21.470Z,100204.91
2022-12-22T17:33:48.469Z,100199.75
2022-12-22T17:36:32.029Z,100196.28
2022-12-22T17:38:59.338Z,100192.88
2022-12-22T17:41:26.110Z,100192.75
2022-12-22T17:43:52.670Z,100201.34
2022-12-22T17:46:20.994Z,100210.03
2022-12-22T17:48:49.064Z,100209.88
2022-12-22T17:51:28.478Z,100207.22
2022-12-22T17:53:57.481Z,100213.34
2022-12-22T17:56:25.879Z,100221.97
2022-12-22T17:58:52.844Z,100222.75
2022-12-22T18:01:25.405Z,100227.00
2022-12-22T18:03:52.594Z,100236.56
2022-12-22T18:06:22.436Z,100233.06
2022-12-22T18:08:50.993Z,100230.56
2022-12-22T18:11:18.018Z,100240.88
2022-12-22T18:13:45.010Z,100245.31
2022-12-22T18:16:16.912Z,100236.38
2022-12-22T18:18:43.826Z,100225.00
2022-12-22T18:21:20.154Z,100207.69
2022-12-22T18:23:50.487Z,100199.06
2022-12-22T18:26:29.596Z,100195.56
2022-12-22T18:28:57.090Z,100205.84
2022-12-22T18:31:24.667Z,100201.63
2022-12-22T18:33:52.195Z,100233.38
2022-12-22T18:36:31.041Z,100232.66
2022-12-22T18:39:00.022Z,100227.16
2022-12-22T18:41:29.298Z,100230.63
2022-12-22T18:43:55.884Z,100235.72
2022-12-22T18:46:23.615Z,100233.00
2022-12-22T18:48:51.022Z,100217.59
2022-12-22T18:51:21.636Z,100210.63
2022-12-22T18:53:50.342Z,100210.63
2022-12-22T18:56:17.871Z,100190.69
2022-12-22T18:58:44.772Z,100181.28
2022-12-22T19:01:22.015Z,100188.09
2022-12-22T19:03:49.168Z,100174.19
2022-12-22T19:06:19.407Z,100174.09
2022-12-22T19:08:48.218Z,100163.69
2022-12-22T19:11:17.440Z,100161.13
2022-12-22T19:13:47.874Z,100163.78
2022-12-22T19:16:17.942Z,100162.91
2022-12-22T19:18:44.866Z,100164.72
2022-12-22T19:21:16.020Z,100164.63
2022-12-22T19:23:43.008Z,100165.63
2022-12-22T19:26:27.712Z,100161.19
2022-12-22T19:28:55.592Z,100165.53
2022-12-22T19:31:25.855Z,100159.50
2022-12-22T19:33:53.637Z,100156.06
2022-12-22T19:36:25.931Z,100166.38
2022-12-22T19:39:03.278Z,100169.81
2022-12-22T19:41:40.478Z,100157.81
2022-12-22T19:44:22.541Z,100157.84
2022-12-22T19:46:49.648Z,100168.13
2022-12-22T19:49:19.001Z,100165.63
2022-12-22T19:51:45.795Z,100162.19
2022-12-22T19:54:12.670Z,100168.06
2022-12-22T19:56:40.166Z,100160.38
2022-12-22T19:59:14.578Z,100156.03
2022-12-22T20:01:41.229Z,100176.84
2022-12-22T20:04:12.256Z,100156.91
2022-12-22T20:06:38.851Z,100168.94
2022-12-22T20:09:05.415Z,100182.03
2022-12-22T20:11:33.015Z,100187.34
2022-12-22T20:13:59.817Z,100192.44
2022-12-22T20:16:26.386Z,100190.78
2022-12-22T20:18:53.015Z,100184.69
2022-12-22T20:21:29.574Z,100188.13
2022-12-22T20:24:00.122Z,100183.81
2022-12-22T20:26:27.680Z,100183.81
2022-12-22T20:28:55.423Z,100199.38
2022-12-22T20:31:24.261Z,100193.41
2022-12-22T20:33:52.312Z,100198.59
2022-12-22T20:36:26.805Z,100191.75
2022-12-22T20:38:55.151Z,100192.63
2022-12-22T20:41:22.093Z,100193.41
2022-12-22T20:43:49.560Z,100196.91
2022-12-22T20:46:25.541Z,100203.03
2022-12-22T20:48:56.488Z,100231.00
2022-12-22T20:51:25.257Z,100231.69
2022-12-22T20:53:52.466Z,100245.69
2022-12-22T20:56:28.163Z,100238.75
2022-12-22T20:58:55.985Z,100252.50
2022-12-22T21:01:23.503Z,100244.75
2022-12-22T21:03:50.391Z,100236.19
2022-12-22T21:06:20.084Z,100235.22
2022-12-22T21:08:46.586Z,100241.19
2022-12-22T21:11:13.096Z,100236.06
2022-12-22T21:13:39.688Z,100247.16
2022-12-22T21:16:12.847Z,100244.59
2022-12-22T21:18:39.422Z,100240.31
2022-12-22T21:21:06.018Z,100235.13
2022-12-22T21:23:32.585Z,100232.50
2022-12-22T21:25:59.804Z,100234.03
2022-12-22T21:28:33.366Z,100234.94
2022-12-22T21:31:00.346Z,100240.13
2022-12-22T21:33:26.981Z,100236.63
2022-12-22T21:35:55.500Z,100235.78
2022-12-22T21:38:25.796Z,100220.19
2022-12-22T21:40:52.450Z,100223.59
2022-12-22T21:43:19.307Z,100221.06
2022-12-22T21:45:48.915Z,100212.44
2022-12-22T21:48:18.937Z,100210.69
2022-12-22T21:50:46.969Z,100213.22
2022-12-22T21:53:19.779Z,100201.13
2022-12-22T21:55:49.067Z,100201.94
2022-12-22T21:58:15.746Z,100206.28
2022-12-22T22:00:47.069Z,100216.66
2022-12-22T22:03:15.042Z,100225.22
2022-12-22T22:05:42.486Z,100217.44
2022-12-22T22:08:11.446Z,100232.81
2022-12-22T22:10:43.147Z,100219.09
2022-12-22T22:13:18.700Z,100225.97
2022-12-22T22:15:45.245Z,100229.41
2022-12-22T22:18:20.303Z,100226.09
2022-12-22T22:20:47.157Z,100217.34
2022-12-22T22:23:14.571Z,100216.44
2022-12-22T22:25:41.277Z,100219.06
2022-12-22T22:28:10.408Z,100219.88
2022-12-22T22:30:36.891Z,100226.81
2022-12-22T22:33:03.726Z,100220.78
2022-12-22T22:35:30.219Z,100224.09
2022-12-22T22:37:56.732Z,100220.72
2022-12-22T22:40:24.207Z,100217.28
2022-12-22T22:42:50.848Z,100222.56
2022-12-22T22:45:23.749Z,100216.47
2022-12-22T22:47:51.920Z,100214.69
2022-12-22T22:50:19.545Z,100230.13
2022-12-22T22:52:46.733Z,100224.13
2022-12-22T22:55:14.384Z,100209.66
2022-12-22T22:57:41.916Z,100210.47
2022-12-22T23:00:11.800Z,100207.03
2022-12-22T23:02:39.033Z,100198.41
2022-12-22T23:05:06.086Z,100194.97
2022-12-22T23:07:32.695Z,100181.22
2022-12-22T23:09:59.273Z,100181.16
2022-12-22T23:12:25.998Z,100172.53
2022-12-22T23:14:52.590Z,100174.22
2022-12-22T23:17:19.370Z,100186.22
2022-12-22T23:19:45.913Z,100178.56
2022-12-22T23:22:12.715Z,100190.47
2022-12-22T23:24:39.262Z,100184.56
2022-12-22T23:27:06.151Z,100183.66
2022-12-22T23:29:32.751Z,100187.19
2022-12-22T23:31:59.696Z,100188.91
2022-12-22T23:34:26.277Z,100179.50
2022-12-22T23:36:52.796Z,100176.06
2022-12-22T23:39:19.342Z,100176.16
2022-12-22T23:41:45.983Z,100176.13
2022-12-22T23:44:12.739Z,100174.38
2022-12-22T23:46:40.026Z,100175.19
2022-12-22T23:49:07.444Z,100176.94
2022-12-22T23:51:33.988Z,100175.13
2022-12-22T23:54:01.557Z,100166.53
2022-12-22T23:56:31.335Z,100156.19
2022-12-22T23:58:58.777Z,100155.38
